createdAt,value
2018-01-08T00:01:25.854Z,6.87
2018-01-08T00:03:54.092Z,8.10
2018-01-08T00:06:22.429Z,8.30
2018-01-08T00:08:50.679Z,7.30
2018-01-08T00:11:19.704Z,6.53
2018-01-08T00:13:47.982Z,7.00
2018-01-08T00:16:16.238Z,7.67
2018-01-08T00:18:44.483Z,6.80
2018-01-08T00:21:12.832Z,8.80
2018-01-08T00:23:41.075Z,7.30
2018-01-08T00:26:10.101Z,7.60
2018-01-08T00:28:38.430Z,7.47
2018-01-08T00:31:06.776Z,7.70
2018-01-08T00:33:35.012Z,6.67
2018-01-08T00:36:04.064Z,8.13
2018-01-08T00:38:32.304Z,7.00
2018-01-08T00:41:01.362Z,8.33
2018-01-08T00:43:29.715Z,6.73
2018-01-08T00:45:57.973Z,7.13
2018-01-08T00:48:26.230Z,6.30
2018-01-08T00:50:55.254Z,7.70
2018-01-08T00:53:23.506Z,8.13
2018-01-08T00:55:51.840Z,7.83
2018-01-08T00:58:20.087Z,7.53
2018-01-08T01:00:49.115Z,7.57
2018-01-08T01:03:17.634Z,7.37
2018-01-08T01:05:45.929Z,6.90
2018-01-08T01:08:14.160Z,7.10
2018-01-08T01:10:42.420Z,6.80
2018-01-08T01:13:11.439Z,7.40
2018-01-08T01:15:39.709Z,7.97
2018-01-08T01:18:08.018Z,7.63
2018-01-08T01:20:36.294Z,8.47
2018-01-08T01:23:04.580Z,8.73
2018-01-08T01:25:32.864Z,8.53
2018-01-08T01:28:01.143Z,8.30
2018-01-08T01:30:29.408Z,8.73
2018-01-08T01:32:57.645Z,9.17
2018-01-08T01:35:26.671Z,7.80
2018-01-08T01:37:54.935Z,10.40
2018-01-08T01:40:23.958Z,8.93
2018-01-08T01:42:52.233Z,9.30
2018-01-08T01:45:20.487Z,8.90
2018-01-08T01:47:49.524Z,9.50
2018-01-08T01:50:17.778Z,8.40
2018-01-08T01:52:46.815Z,8.47
2018-01-08T01:55:15.100Z,9.93
2018-01-08T01:57:43.391Z,9.63
2018-01-08T02:00:11.683Z,10.47
2018-01-08T02:02:40.038Z,10.53
2018-01-08T02:05:08.285Z,9.50
2018-01-08T02:07:37.317Z,9.20
2018-01-08T02:10:05.614Z,10.00
2018-01-08T02:12:33.864Z,8.50
2018-01-08T02:15:02.116Z,8.80
2018-01-08T02:17:31.164Z,8.53
2018-01-08T02:19:59.402Z,9.00
2018-01-08T02:22:28.434Z,8.50
2018-01-08T02:24:56.685Z,8.27
2018-01-08T02:27:25.707Z,8.90
2018-01-08T02:29:53.958Z,9.13
2018-01-08T02:32:22.988Z,8.13
2018-01-08T02:34:51.247Z,9.73
2018-01-08T02:37:20.267Z,9.77
2018-01-08T02:39:48.510Z,10.10
2018-01-08T02:42:17.538Z,9.03
2018-01-08T02:44:45.778Z,8.47
2018-01-08T02:47:14.062Z,9.47
2018-01-08T02:49:42.314Z,10.23
2018-01-08T02:52:10.696Z,10.47
2018-01-08T02:54:38.944Z,9.83
2018-01-08T02:57:07.204Z,10.43
2018-01-08T02:59:36.224Z,9.20
2018-01-08T03:02:04.513Z,10.37
2018-01-08T03:04:32.805Z,10.07
2018-01-08T03:07:01.065Z,9.90
2018-01-08T03:09:29.318Z,11.35
2018-01-08T03:11:58.347Z,10.17
2018-01-08T03:14:26.601Z,10.13
2018-01-08T03:16:55.634Z,11.50
2018-01-08T03:19:23.891Z,12.17
2018-01-08T03:21:52.166Z,12.17
2018-01-08T03:24:21.202Z,10.73
2018-01-08T03:26:49.461Z,12.20
2018-01-08T03:29:17.719Z,11.63
2018-01-08T03:31:46.767Z,12.47
2018-01-08T03:34:15.017Z,11.83
2018-01-08T03:36:43.322Z,11.60
2018-01-08T03:39:11.574Z,11.70
2018-01-08T03:41:39.863Z,12.30
2018-01-08T03:44:08.113Z,12.13
2018-01-08T03:46:36.383Z,12.07
2018-01-08T03:49:04.653Z,13.20
2018-01-08T03:51:33.012Z,13.20
2018-01-08T03:54:01.296Z,12.00
2018-01-08T03:56:29.564Z,13.60
2018-01-08T03:58:57.814Z,12.73
2018-01-08T04:01:26.862Z,11.70
2018-01-08T04:03:55.107Z,13.40
2018-01-08T04:06:23.379Z,12.97
2018-01-08T04:08:52.392Z,13.13
2018-01-08T04:11:20.733Z,13.30
2018-01-08T04:13:48.987Z,14.07
2018-01-08T04:16:17.238Z,13.80
2018-01-08T04:18:45.543Z,13.40
2018-01-08T04:21:13.811Z,13.63
2018-01-08T04:23:42.054Z,13.00
2018-01-08T04:26:11.090Z,13.50
2018-01-08T04:28:39.342Z,13.77
2018-01-08T04:31:08.373Z,13.80
2018-01-08T04:33:36.633Z,13.90
2018-01-08T04:36:05.753Z,15.07
2018-01-08T04:38:34.018Z,14.10
2018-01-08T04:41:02.326Z,14.53
2018-01-08T04:43:30.575Z,12.80
2018-01-08T04:45:59.583Z,13.80
2018-01-08T04:48:27.842Z,15.40
2018-01-08T04:50:56.879Z,15.83
2018-01-08T04:53:25.135Z,13.87
2018-01-08T04:55:53.386Z,14.80
2018-01-08T04:58:21.686Z,15.57
2018-01-08T05:00:50.696Z,14.00
2018-01-08T05:03:20.636Z,15.40
2018-01-08T05:05:48.891Z,14.97
2018-01-08T05:08:17.919Z,14.93
2018-01-08T05:10:46.174Z,17.10
2018-01-08T05:13:14.453Z,15.80
2018-01-08T05:15:42.708Z,15.97
2018-01-08T05:18:10.971Z,15.40
2018-01-08T05:20:39.261Z,13.80
2018-01-08T05:23:07.507Z,15.00
2018-01-08T05:25:35.815Z,15.20
2018-01-08T05:28:04.089Z,16.40
2018-01-08T05:30:32.341Z,15.50
2018-01-08T05:33:00.598Z,15.13
2018-01-08T05:35:28.859Z,13.77
2018-01-08T05:37:57.121Z,16.73
2018-01-08T05:40:25.375Z,15.30
2018-01-08T05:42:53.653Z,15.87
2018-01-08T05:45:21.914Z,14.53
2018-01-08T05:47:50.182Z,16.37
2018-01-08T05:50:19.194Z,15.70
2018-01-08T05:52:47.538Z,16.10
2018-01-08T05:55:15.811Z,15.47
2018-01-08T05:57:44.158Z,17.15
2018-01-08T06:00:12.421Z,15.30
2018-01-08T06:02:40.665Z,15.40
2018-01-08T06:05:09.714Z,16.53
2018-01-08T06:07:37.964Z,15.23
2018-01-08T06:10:06.234Z,16.20
2018-01-08T06:12:35.245Z,15.73
2018-01-08T06:15:03.827Z,14.10
2018-01-08T06:17:32.146Z,16.50
2018-01-08T06:20:00.398Z,13.53
2018-01-08T06:22:28.644Z,16.00
2018-01-08T06:24:56.907Z,14.60
2018-01-08T06:27:25.157Z,16.00
2018-01-08T06:29:53.424Z,15.17
2018-01-08T06:32:22.249Z,15.57
2018-01-08T06:34:51.121Z,15.10
2018-01-08T06:37:19.452Z,14.40
2018-01-08T06:39:47.712Z,16.10
2018-01-08T06:42:15.955Z,15.60
2018-01-08T06:44:44.662Z,15.80
2018-01-08T06:47:12.964Z,14.80
2018-01-08T06:49:41.238Z,14.57
2018-01-08T06:52:09.484Z,15.03
2018-01-08T06:54:37.764Z,14.93
2018-01-08T06:57:06.783Z,16.60
2018-01-08T06:59:35.046Z,14.93
2018-01-08T07:02:03.302Z,16.57
2018-01-08T07:04:31.838Z,18.00
2018-01-08T07:07:00.119Z,14.83
2018-01-08T07:09:28.399Z,14.10
2018-01-08T07:11:56.674Z,16.90
2018-01-08T07:14:24.922Z,15.93
2018-01-08T07:16:53.968Z,17.02
2018-01-08T07:19:22.240Z,16.97
2018-01-08T07:21:50.503Z,16.20
2018-01-08T07:24:18.759Z,15.90
2018-01-08T07:26:47.786Z,14.80
2018-01-08T07:29:16.043Z,16.10
2018-01-08T07:31:45.075Z,15.43
2018-01-08T07:34:13.372Z,16.00
2018-01-08T07:36:41.631Z,16.73
2018-01-08T07:39:10.879Z,16.20
2018-01-08T07:41:39.149Z,16.57
2018-01-08T07:44:07.403Z,17.73
2018-01-08T07:46:35.699Z,15.50
2018-01-08T07:49:03.946Z,16.17
2018-01-08T07:51:32.222Z,15.23
2018-01-08T07:54:01.234Z,16.97
2018-01-08T07:56:29.538Z,15.53
2018-01-08T07:58:57.863Z,15.87
2018-01-08T08:01:26.645Z,14.63
2018-01-08T08:03:55.637Z,14.03
2018-01-08T08:06:23.910Z,14.40
2018-01-08T08:08:52.205Z,15.00
2018-01-08T08:11:20.452Z,15.37
2018-01-08T08:13:48.701Z,14.27
2018-01-08T08:16:16.958Z,14.67
2018-01-08T08:18:45.227Z,14.50
2018-01-08T08:21:13.474Z,13.83
2018-01-08T08:23:41.734Z,14.50
2018-01-08T08:26:10.030Z,16.63
2018-01-08T08:28:39.033Z,16.50
2018-01-08T08:31:07.290Z,15.80
2018-01-08T08:33:35.559Z,15.50
2018-01-08T08:36:03.807Z,15.70
2018-01-08T08:38:32.078Z,15.60
2018-01-08T08:41:00.327Z,14.63
2018-01-08T08:43:28.674Z,14.83
2018-01-08T08:45:56.890Z,14.90
2018-01-08T08:48:25.187Z,16.67
2018-01-08T08:50:53.439Z,14.70
2018-01-08T08:53:22.566Z,14.80
2018-01-08T08:55:50.815Z,15.77
2018-01-08T08:58:19.950Z,16.60
2018-01-08T09:00:48.202Z,16.70
2018-01-08T09:03:16.470Z,15.30
2018-01-08T09:05:45.482Z,15.50
2018-01-08T09:08:13.753Z,16.50
2018-01-08T09:10:42.763Z,14.80
2018-01-08T09:13:11.100Z,15.07
2018-01-08T09:15:39.453Z,15.07
2018-01-08T09:18:08.002Z,14.80
2018-01-08T09:20:36.569Z,15.00
2018-01-08T09:23:05.703Z,16.60
2018-01-08T09:25:34.063Z,14.90
2018-01-08T09:28:03.130Z,14.20
2018-01-08T09:30:31.398Z,16.17
2018-01-08T09:32:59.687Z,15.13
2018-01-08T09:35:27.930Z,15.00
2018-01-08T09:37:56.457Z,15.47
2018-01-08T09:40:24.698Z,16.10
2018-01-08T09:42:52.963Z,14.67
2018-01-08T09:45:21.982Z,16.00
2018-01-08T09:47:50.267Z,14.50
2018-01-08T09:50:18.529Z,15.00
2018-01-08T09:52:48.310Z,14.63
2018-01-08T09:55:16.566Z,15.43
2018-01-08T09:57:45.201Z,14.53
2018-01-08T10:00:13.451Z,14.17
2018-01-08T10:02:53.689Z,15.30
2018-01-08T10:05:39.813Z,14.70
2018-01-08T10:08:26.147Z,15.20
2018-01-08T10:11:12.369Z,12.57
2018-01-08T10:13:59.465Z,14.73
2018-01-08T10:16:45.744Z,14.43
2018-01-08T10:19:31.878Z,14.30
2018-01-08T10:21:59.915Z,12.83
2018-01-08T10:24:28.205Z,14.57
2018-01-08T10:26:56.508Z,15.43
2018-01-08T10:29:24.751Z,14.20
2018-01-08T10:31:52.993Z,14.53
2018-01-08T10:34:22.849Z,14.50
2018-01-08T10:36:51.140Z,14.60
2018-01-08T10:39:19.404Z,14.23
2018-01-08T10:41:53.440Z,13.77
2018-01-08T10:44:27.458Z,14.60
2018-01-08T10:47:01.532Z,14.83
2018-01-08T10:49:36.335Z,14.17
2018-01-08T10:52:04.120Z,16.10
2018-01-08T10:54:33.996Z,14.83
2018-01-08T10:57:02.247Z,14.23
2018-01-08T10:59:30.520Z,14.93
2018-01-08T11:02:04.548Z,14.40
2018-01-08T11:04:32.839Z,13.53
2018-01-08T11:07:01.232Z,14.73
2018-01-08T11:09:29.751Z,13.43
2018-01-08T11:11:58.982Z,14.60
2018-01-08T11:14:28.364Z,15.00
2018-01-08T11:16:56.992Z,14.80
2018-01-08T11:19:26.267Z,15.07
2018-01-08T11:21:54.841Z,13.17
2018-01-08T11:24:23.172Z,15.33
2018-01-08T11:26:51.612Z,14.07
2018-01-08T11:29:20.238Z,13.70
2018-01-08T11:31:48.789Z,15.00
2018-01-08T11:34:17.109Z,14.50
2018-01-08T11:36:45.382Z,14.47
2018-01-08T11:39:13.658Z,15.40
2018-01-08T11:41:42.690Z,14.53
2018-01-08T11:44:10.946Z,14.47
2018-01-08T11:46:39.461Z,16.23
2018-01-08T11:49:07.737Z,15.77
2018-01-08T11:51:35.997Z,15.10
2018-01-08T11:54:04.251Z,14.77
2018-01-08T11:56:33.280Z,14.03
2018-01-08T11:59:01.574Z,14.20
2018-01-08T12:01:29.828Z,14.77
2018-01-08T12:03:58.854Z,13.90
2018-01-08T12:06:27.208Z,13.23
2018-01-08T12:08:55.528Z,14.30
2018-01-08T12:11:23.798Z,12.73
2018-01-08T12:13:52.102Z,13.33
2018-01-08T12:16:20.371Z,14.70
2018-01-08T12:18:49.166Z,13.27
2018-01-08T12:21:17.441Z,13.90
2018-01-08T12:23:45.721Z,13.20
2018-01-08T12:26:14.017Z,13.10
2018-01-08T12:28:42.263Z,13.90
2018-01-08T12:31:10.543Z,14.70
2018-01-08T12:33:38.791Z,13.60
2018-01-08T12:36:07.846Z,14.20
2018-01-08T12:38:36.421Z,14.47
2018-01-08T12:41:04.707Z,15.10
2018-01-08T12:43:32.954Z,13.67
2018-01-08T12:46:01.223Z,14.03
2018-01-08T12:48:30.242Z,12.80
2018-01-08T12:50:58.498Z,13.97
2018-01-08T12:53:27.518Z,13.07
2018-01-08T12:55:55.785Z,12.17
2018-01-08T12:58:24.807Z,12.33
2018-01-08T13:00:53.102Z,13.30
2018-01-08T13:03:21.354Z,12.40
2018-01-08T13:05:50.394Z,13.07
2018-01-08T13:08:18.640Z,14.83
2018-01-08T13:10:47.772Z,12.97
2018-01-08T13:13:16.022Z,13.10
2018-01-08T13:15:44.297Z,13.10
2018-01-08T13:18:14.093Z,12.80
2018-01-08T13:20:42.365Z,13.33
2018-01-08T13:23:10.620Z,12.60
2018-01-08T13:25:38.891Z,13.93
2018-01-08T13:28:07.725Z,12.80
2018-01-08T13:30:35.994Z,13.73
2018-01-08T13:33:04.374Z,13.00
2018-01-08T13:35:32.639Z,12.57
2018-01-08T13:38:00.912Z,12.80
2018-01-08T13:40:29.185Z,13.43
2018-01-08T13:42:57.484Z,13.90
2018-01-08T13:45:25.747Z,12.97
2018-01-08T13:47:54.016Z,13.90
2018-01-08T13:50:22.327Z,13.30
2018-01-08T13:52:50.602Z,14.77
2018-01-08T13:55:19.060Z,13.70
2018-01-08T13:57:47.324Z,14.97
2018-01-08T14:00:16.378Z,13.40
2018-01-08T14:02:44.659Z,14.90
2018-01-08T14:05:12.939Z,13.83
2018-01-08T14:07:41.235Z,15.30
2018-01-08T14:10:09.497Z,14.70
2018-01-08T14:12:37.756Z,15.50
2018-01-08T14:15:06.011Z,14.60
2018-01-08T14:17:35.144Z,15.37
2018-01-08T14:20:03.407Z,15.80
2018-01-08T14:22:31.678Z,14.90
2018-01-08T14:24:59.930Z,16.40
2018-01-08T14:27:28.194Z,14.67
2018-01-08T14:29:56.466Z,15.50
2018-01-08T14:32:24.735Z,16.50
2018-01-08T14:34:52.988Z,15.90
2018-01-08T14:37:21.251Z,16.07
2018-01-08T14:39:50.270Z,15.30
2018-01-08T14:42:18.552Z,15.10
2018-01-08T14:44:46.855Z,15.53
2018-01-08T14:47:15.119Z,16.20
2018-01-08T14:49:43.367Z,15.77
2018-01-08T14:52:12.422Z,14.83
2018-01-08T14:54:40.667Z,18.50
2018-01-08T14:57:08.948Z,17.60
2018-01-08T14:59:37.201Z,15.83
2018-01-08T15:02:06.246Z,16.63
2018-01-08T15:04:34.514Z,16.13
2018-01-08T15:07:02.792Z,15.50
2018-01-08T15:09:31.058Z,16.07
2018-01-08T15:11:59.372Z,15.17
2018-01-08T15:14:27.619Z,15.37
2018-01-08T15:16:55.883Z,16.00
2018-01-08T15:19:24.899Z,15.13
2018-01-08T15:21:53.161Z,14.87
2018-01-08T15:24:22.214Z,15.37
2018-01-08T15:26:50.489Z,15.40
2018-01-08T15:29:18.750Z,15.97
2018-01-08T15:31:47.032Z,17.07
2018-01-08T15:34:16.042Z,16.90
2018-01-08T15:36:44.338Z,15.40
2018-01-08T15:39:12.593Z,14.90
2018-01-08T15:41:40.855Z,17.80
2018-01-08T15:44:09.878Z,16.27
2018-01-08T15:46:38.149Z,15.40
2018-01-08T15:49:06.412Z,15.53
2018-01-08T15:51:35.453Z,16.10
2018-01-08T15:54:03.709Z,14.70
2018-01-08T15:56:31.988Z,15.37
2018-01-08T15:59:00.231Z,16.70
2018-01-08T16:01:28.498Z,15.00
2018-01-08T16:03:56.745Z,15.47
2018-01-08T16:06:25.003Z,15.60
2018-01-08T16:08:53.353Z,14.93
2018-01-08T16:11:21.698Z,14.63
2018-01-08T16:13:49.974Z,15.70
2018-01-08T16:16:19.014Z,15.30
2018-01-08T16:18:47.249Z,14.43
2018-01-08T16:21:15.533Z,14.13
2018-01-08T16:23:43.786Z,15.63
2018-01-08T16:26:12.924Z,15.67
2018-01-08T16:28:41.187Z,17.73
2018-01-08T16:31:09.450Z,15.90
2018-01-08T16:33:37.769Z,14.97
2018-01-08T16:36:06.048Z,17.40
2018-01-08T16:38:34.319Z,14.73
2018-01-08T16:41:02.610Z,14.20
2018-01-08T16:43:30.874Z,14.83
2018-01-08T16:45:59.123Z,14.40
2018-01-08T16:48:28.155Z,14.73
2018-01-08T16:50:56.452Z,14.93
2018-01-08T16:53:24.726Z,16.10
2018-01-08T16:55:52.973Z,14.53
2018-01-08T16:58:22.128Z,14.23
2018-01-08T17:00:50.375Z,14.50
2018-01-08T17:03:18.638Z,16.90
2018-01-08T17:05:46.896Z,15.40
2018-01-08T17:08:15.163Z,15.20
2018-01-08T17:10:43.665Z,15.07
2018-01-08T17:13:11.941Z,14.70
2018-01-08T17:15:40.292Z,14.27
2018-01-08T17:18:08.579Z,14.50
2018-01-08T17:20:36.828Z,15.13
2018-01-08T17:23:05.830Z,15.90
2018-01-08T17:25:34.837Z,16.13
2018-01-08T17:28:03.130Z,14.67
2018-01-08T17:30:31.410Z,14.20
2018-01-08T17:32:59.691Z,17.33
2018-01-08T17:35:27.929Z,14.20
2018-01-08T17:37:56.964Z,15.60
2018-01-08T17:40:25.215Z,14.80
2018-01-08T17:42:53.504Z,15.03
2018-01-08T17:45:21.767Z,15.77
2018-01-08T17:47:50.793Z,14.13
2018-01-08T17:50:19.046Z,15.17
2018-01-08T17:52:48.289Z,14.43
2018-01-08T17:55:16.571Z,15.57
2018-01-08T17:57:44.843Z,15.10
2018-01-08T18:00:13.090Z,18.00
2018-01-08T18:02:42.104Z,26.27
2018-01-08T18:05:10.394Z,137.93
2018-01-08T18:07:38.652Z,55.60
2018-01-08T18:10:07.702Z,241.23
2018-01-08T18:12:41.818Z,314.00
2018-01-08T18:15:10.110Z,85.37
2018-01-08T18:17:38.376Z,35.90
2018-01-08T18:20:06.761Z,22.37
2018-01-08T18:22:35.201Z,14.07
2018-01-08T18:25:04.340Z,13.47
2018-01-08T18:27:32.909Z,15.10
2018-01-08T18:30:02.129Z,14.40
2018-01-08T18:32:30.860Z,13.40
2018-01-08T18:34:59.192Z,13.90
2018-01-08T18:37:27.458Z,15.10
2018-01-08T18:39:56.590Z,30.87
2018-01-08T18:42:25.246Z,19.80
2018-01-08T18:44:53.518Z,16.80
2018-01-08T18:47:22.534Z,15.03
2018-01-08T18:49:50.790Z,14.20
2018-01-08T18:52:19.842Z,13.83
2018-01-08T18:54:48.110Z,14.87
2018-01-08T18:57:16.360Z,15.10
2018-01-08T18:59:45.466Z,14.83
2018-01-08T19:02:13.691Z,14.00
2018-01-08T19:04:41.950Z,12.73
2018-01-08T19:07:10.203Z,13.70
2018-01-08T19:09:38.491Z,14.67
2018-01-08T19:12:10.666Z,16.10
2018-01-08T19:14:40.262Z,14.10
2018-01-08T19:17:08.501Z,14.17
2018-01-08T19:19:37.521Z,14.03
2018-01-08T19:22:05.825Z,14.60
2018-01-08T19:24:34.114Z,13.87
2018-01-08T19:27:02.383Z,14.23
2018-01-08T19:29:30.626Z,13.77
2018-01-08T19:31:59.666Z,14.40
2018-01-08T19:34:27.946Z,15.17
2018-01-08T19:36:56.218Z,13.43
2018-01-08T19:39:24.457Z,14.73
2018-01-08T19:41:52.722Z,15.63
2018-01-08T19:44:20.982Z,14.40
2018-01-08T19:46:49.242Z,12.80
2018-01-08T19:49:17.500Z,14.77
2018-01-08T19:51:46.546Z,13.87
2018-01-08T19:54:14.833Z,14.80
2018-01-08T19:56:43.114Z,15.67
2018-01-08T19:59:11.378Z,14.10
2018-01-08T20:01:39.662Z,14.33
2018-01-08T20:06:47.586Z,14.13
2018-01-08T20:09:15.854Z,13.53
2018-01-08T20:11:44.123Z,14.13
2018-01-08T20:14:12.372Z,14.93
2018-01-08T20:16:40.646Z,14.83
2018-01-08T20:19:10.414Z,14.50
2018-01-08T20:21:38.811Z,14.80
2018-01-08T20:24:08.083Z,14.90
2018-01-08T20:26:37.212Z,14.90
2018-01-08T20:29:05.519Z,13.00
2018-01-08T20:31:33.782Z,13.83
2018-01-08T20:34:02.035Z,14.77
2018-01-08T20:36:31.054Z,12.97
2018-01-08T20:38:59.323Z,13.20
2018-01-08T20:41:27.579Z,14.33
2018-01-08T20:43:56.602Z,14.27
2018-01-08T20:46:24.851Z,14.10
2018-01-08T20:48:53.112Z,12.63
2018-01-08T20:51:21.363Z,13.30
2018-01-08T20:53:49.644Z,13.70
2018-01-08T20:56:17.900Z,12.90
2018-01-08T20:58:46.220Z,15.47
2018-01-08T21:01:14.468Z,14.80
2018-01-08T21:03:42.734Z,12.43
2018-01-08T21:06:11.758Z,13.47
2018-01-08T21:08:40.399Z,12.70
2018-01-08T21:11:08.649Z,14.70
2018-01-08T21:13:36.919Z,11.73
2018-01-08T21:16:05.171Z,13.40
2018-01-08T21:18:34.198Z,14.07
2018-01-08T21:21:02.460Z,13.63
2018-01-08T21:23:30.766Z,14.80
2018-01-08T21:25:59.011Z,12.87
2018-01-08T21:28:28.054Z,15.00
2018-01-08T21:30:56.341Z,14.50
2018-01-08T21:33:24.610Z,13.10
2018-01-08T21:35:52.853Z,14.70
2018-01-08T21:38:21.904Z,13.10
2018-01-08T21:40:50.178Z,14.00
2018-01-08T21:43:18.466Z,12.37
2018-01-08T21:45:46.722Z,13.30
2018-01-08T21:48:15.005Z,12.27
2018-01-08T21:50:43.248Z,13.00
2018-01-08T21:53:11.590Z,12.63
2018-01-08T21:55:39.867Z,12.57
2018-01-08T21:58:08.145Z,12.83
2018-01-08T22:00:36.428Z,11.77
2018-01-08T22:03:04.750Z,11.90
2018-01-08T22:05:33.016Z,13.73
2018-01-08T22:08:01.306Z,13.10
2018-01-08T22:10:29.559Z,12.57
2018-01-08T22:12:57.821Z,12.20
2018-01-08T22:15:26.087Z,13.87
2018-01-08T22:17:54.400Z,12.73
2018-01-08T22:20:22.678Z,12.47
2018-01-08T22:22:50.971Z,12.40
2018-01-08T22:25:19.338Z,12.50
2018-01-08T22:27:47.597Z,12.20
2018-01-08T22:30:15.874Z,12.43
2018-01-08T22:32:44.121Z,11.93
2018-01-08T22:35:12.499Z,11.00
2018-01-08T22:37:40.775Z,11.27
2018-01-08T22:40:09.063Z,10.73
2018-01-08T22:42:37.308Z,11.47
2018-01-08T22:45:05.600Z,11.57
2018-01-08T22:47:33.858Z,12.20
2018-01-08T22:50:02.149Z,11.80
2018-01-08T22:52:30.434Z,11.90
2018-01-08T22:54:58.710Z,12.07
2018-01-08T22:57:26.960Z,10.87
2018-01-08T22:59:55.226Z,11.80
2018-01-08T23:02:24.247Z,10.40
2018-01-08T23:04:52.512Z,11.83
2018-01-08T23:07:21.551Z,11.73
2018-01-08T23:09:49.834Z,10.03
2018-01-08T23:12:18.085Z,12.07
2018-01-08T23:14:46.331Z,12.30
2018-01-08T23:17:14.611Z,10.30
2018-01-08T23:19:42.865Z,10.60
2018-01-08T23:22:11.134Z,11.57
2018-01-08T23:24:39.386Z,11.90
2018-01-08T23:27:07.801Z,11.47
2018-01-08T23:29:36.056Z,11.60
2018-01-08T23:32:05.075Z,11.73
2018-01-08T23:34:33.331Z,10.20
2018-01-08T23:37:01.616Z,11.17
2018-01-08T23:39:30.646Z,12.43
2018-01-08T23:41:58.920Z,10.53
2018-01-08T23:44:27.196Z,11.27
2018-01-08T23:46:55.462Z,12.37
2018-01-08T23:49:23.727Z,11.33
2018-01-08T23:51:51.982Z,11.27
2018-01-08T23:54:23.026Z,11.80
2018-01-08T23:56:51.297Z,11.43
2018-01-08T23:59:19.658Z,10.60
